Wednesday, December 19, 2018, 12:42 AM EST
Back to Local

KART, Watertown International Airport

Location: Dexter, NY, United States Lat: 43.983
Local Time: 12:42 AM EST ( 5:42 GMT) Lon: -76.033
Time Zone: US/Eastern Elev: 324 ft

Show me the last for .
Show Decoded

2018-12-18 23:56 METAR KART 190456Z AUTO 09003KT 10SM CLR M12/M13 A3013 RMK AO2 SLP212 T11171133
                 410501122 =
2018-12-18 22:56 METAR KART 190356Z AUTO 11003KT 10SM CLR M12/M13 A3015 RMK AO2 SLP220 I1000
                 T11171128 =
2018-12-18 21:56 METAR KART 190256Z AUTO 00000KT 10SM CLR M12/M12 A3017 RMK AO2 SLP228 I1000
                 I3000 T11171122 58003 =
2018-12-18 20:56 METAR KART 190156Z AUTO 14003KT 10SM CLR M12/M13 A3017 RMK AO2 SLP227 I1000
                 T11171128 =
2018-12-18 19:56 METAR KART 190056Z AUTO 00000KT 10SM CLR M12/M12 A3019 RMK AO2 SLP235 I1000
                 T11171122 =
2018-12-18 18:56 METAR KART 182356Z AUTO 00000KT 10SM CLR M11/M12 A3018 RMK AO2 SLP231 T11061122
                 11050 21106 50001 =
2018-12-18 17:56 METAR KART 182256Z AUTO 00000KT 10SM CLR M07/M12 A3019 RMK AO2 SLP231 T10721117
                 =
2018-12-18 16:56 METAR KART 182156Z AUTO 27006KT 10SM BKN036 M06/M12 A3018 RMK AO2 SLP229
                 T10561117 =
2018-12-18 15:56 METAR KART 182056Z AUTO 32005KT 10SM OVC035 M05/M11 A3018 RMK AO2 SLP227
                 T10501111 53006 =
2018-12-18 14:56 METAR KART 181956Z AUTO 27005KT 10SM BKN034 M06/M12 A3017 RMK AO2 SLP225
                 T10561117 =
2018-12-18 13:56 METAR KART 181856Z AUTO 30010KT 10SM SCT031 M05/M12 A3016 RMK AO2 SLP222
                 T10501117 =
2018-12-18 12:56 METAR KART 181756Z AUTO 30004KT 10SM SCT029 M06/M12 A3016 RMK AO2 SLP223
                 T10561122 11056 21089 58014 =
2018-12-18 11:56 METAR KART 181656Z AUTO 32006KT 10SM CLR M06/M12 A3018 RMK AO2 SLP229 T10611122
                 =
2018-12-18 10:56 METAR KART 181556Z AUTO 33006KT 10SM CLR M07/M13 A3019 RMK AO2 SLP232 T10671128
                 =
2018-12-18 10:40 METAR KART 181540Z AUTO 33008KT 10SM SCT027 M07/M13 A3019 RMK AO2 T10671128 =
2018-12-18 09:56 METAR KART 181456Z AUTO 35007KT 10SM BKN029 M07/M13 A3021 RMK AO2 SLP237
                 T10721128 51018 =
2018-12-18 08:56 METAR KART 181356Z AUTO 33010KT 10SM CLR M08/M13 A3019 RMK AO2 SLP233 T10781133
                 =
2018-12-18 07:56 METAR KART 181256Z AUTO 34005KT 10SM CLR M09/M13 A3017 RMK AO2 SLP225 T10891133
                 $ =
2018-12-18 06:56 METAR KART 181156Z AUTO 34010KT 10SM CLR M08/M14 A3015 RMK AO2 SLP218 60000
                 70001 T10831139 11050 21083 52031 $ =
2018-12-18 05:56 METAR KART 181056Z AUTO 35011KT 10SM OVC040 M07/M12 A3012 RMK AO2 SNB0959E25
                 SLP207 P0000 T10721117 $ =
2018-12-18 05:36 METAR KART 181036Z AUTO 35015G19KT 10SM FEW024 FEW028 OVC036 M07/M11 A3011 RMK
                 AO2 SNB0959E25 P0000 T10671111 $ =
2018-12-18 05:21 METAR KART 181021Z AUTO 35011KT 6SM -SN BKN024 OVC032 M07/M10 A3010 RMK AO2
                 SNB0959 P0000 T10671100 $ =
2018-12-18 05:06 METAR KART 181006Z AUTO 01010KT 2 1/2SM -SN BKN024 BKN029 OVC034 M06/M10 A3009
                 RMK AO2 SNB0959 P0000 T10611100 $ =
2018-12-18 04:56 METAR KART 180956Z AUTO 33012G19KT 9SM OVC034 M06/M11 A3009 RMK AO2 SNB07E31
                 SLP195 P0000 T10561106 $ =
2018-12-18 03:56 METAR KART 180856Z AUTO 34011KT 10SM OVC033 M06/M11 A3006 RMK AO2 SLP185 60000
                 T10561106 51022 $ =
2018-12-18 02:56 METAR KART 180756Z AUTO 34012KT 10SM OVC036 M06/M11 A3004 RMK AO2 SNE23 SLP179
                 P0000 T10561106 $ =
2018-12-18 01:56 METAR KART 180656Z AUTO 33009KT 4SM -SN OVC032 M06/M09 A3002 RMK AO2 SNB44
                 SLP171 P0000 T10561094 $ =
2018-12-18 00:56 METAR KART 180556Z AUTO 34009KT 10SM OVC035 M06/M11 A2999 RMK AO2 SLP163 60000
                 T10561111 11006 21056 51016 =

Support USWX by starting your Amazon purchase here.